Time;durP1;ratioP1;P1;durP2;ratioP2;P2;SDS_P1;SDS_P2;PMS_P1;PMS_P2;Temp;Humidity;BMP_temperature;BMP_pressure;BME280_temperature;BME280_humidity;BME280_pressure;Samples;Min_cycle;Max_cycle;Signal;HPM_P1;HPM_P2
2022/09/12 00:00:25;;;;;;;;;;;16.90;83.00;;;;;;5048989;28;19940;-76
2022/09/12 00:02:52;;;;;;;;;;;16.90;83.10;;;;;;5042565;28;19975;-75
2022/09/12 00:05:20;;;;;;;;;;;16.90;83.10;;;;;;5040430;28;19990;-76
2022/09/12 00:07:46;;;;;;;;;;;16.90;83.20;;;;;;5044579;28;19929;-76
2022/09/12 00:10:13;;;;;;;;;;;16.90;83.20;;;;;;5043032;28;19935;-76
2022/09/12 00:12:39;;;;;;;;;;;16.80;83.20;;;;;;5043300;28;19936;-75
2022/09/12 00:15:07;;;;;;;;;;;16.80;83.30;;;;;;5046641;28;19933;-73
2022/09/12 00:17:34;;;;;;;;;;;16.80;83.30;;;;;;5045490;28;19928;-75
2022/09/12 00:20:00;;;;;;;;;;;16.70;83.30;;;;;;5042153;28;19963;-75
2022/09/12 00:22:28;;;;;;;;;;;16.80;83.40;;;;;;5045006;28;19928;-76
2022/09/12 00:24:55;;;;;;;;;;;16.70;83.30;;;;;;5040524;28;19936;-76
2022/09/12 00:27:21;;;;;;;;;;;16.70;83.40;;;;;;5045001;28;20389;-76
2022/09/12 00:29:48;;;;;;;;;;;16.70;83.40;;;;;;5043921;28;19970;-76
2022/09/12 00:32:14;;;;;;;;;;;16.70;83.40;;;;;;5045084;28;19933;-76
2022/09/12 00:34:41;;;;;;;;;;;16.60;83.40;;;;;;5042923;28;19936;-75
2022/09/12 00:37:07;;;;;;;;;;;16.60;83.40;;;;;;5044641;28;19940;-75
2022/09/12 00:39:35;;;;;;;;;;;16.60;83.50;;;;;;5040318;28;20495;-75
2022/09/12 00:42:02;;;;;;;;;;;16.60;83.60;;;;;;5044798;28;19975;-76
2022/09/12 00:44:45;;;;;;;;;;;16.60;83.50;;;;;;5043113;28;19935;-76
2022/09/12 00:47:15;;;;;;;;;;;16.50;83.60;;;;;;5045182;28;19935;-75
2022/09/12 00:49:43;;;;;;;;;;;16.60;83.70;;;;;;5042971;28;19936;-75
2022/09/12 00:52:11;;;;;;;;;;;16.50;83.70;;;;;;5044762;28;19929;-75
2022/09/12 00:54:42;;;;;;;;;;;16.50;83.70;;;;;;5035073;28;19933;-76
2022/09/12 00:57:11;;;;;;;;;;;16.50;83.80;;;;;;5041720;28;19937;-75
2022/09/12 00:59:39;;;;;;;;;;;16.40;83.80;;;;;;5043078;28;19952;-75
2022/09/12 01:02:06;;;;;;;;;;;16.40;83.80;;;;;;5042350;28;20839;-74
2022/09/12 01:04:34;;;;;;;;;;;16.40;83.80;;;;;;5039942;28;19929;-75
2022/09/12 01:07:03;;;;;;;;;;;16.40;83.90;;;;;;5041255;28;19928;-76
2022/09/12 01:09:30;;;;;;;;;;;16.40;84.00;;;;;;5041979;28;20534;-76
2022/09/12 01:11:58;;;;;;;;;;;16.40;84.00;;;;;;5042987;28;19942;-76
2022/09/12 01:14:25;;;;;;;;;;;16.40;84.10;;;;;;5043357;28;20396;-75
2022/09/12 01:16:51;;;;;;;;;;;16.30;84.00;;;;;;5038249;28;19925;-76
2022/09/12 01:19:42;;;;;;;;;;;16.30;84.20;;;;;;5042962;28;19928;-76
2022/09/12 01:22:20;;;;;;;;;;;16.30;84.20;;;;;;5043310;28;19933;-75
2022/09/12 01:24:52;;;;;;;;;;;16.30;84.20;;;;;;5038518;28;20309;-76
2022/09/12 01:27:27;;;;;;;;;;;16.20;84.10;;;;;;5044029;28;19940;-76
2022/09/12 01:30:23;;;;;;;;;;;16.20;84.20;;;;;;5042193;28;19928;-76
2022/09/12 01:33:19;;;;;;;;;;;16.20;84.30;;;;;;5043529;28;19933;-75
2022/09/12 01:35:50;;;;;;;;;;;16.20;84.30;;;;;;5039541;28;19937;-76
2022/09/12 01:38:20;;;;;;;;;;;16.20;84.40;;;;;;5044737;28;19929;-76
2022/09/12 01:40:53;;;;;;;;;;;16.10;84.30;;;;;;5040032;28;19933;-75
2022/09/12 01:43:23;;;;;;;;;;;16.10;84.40;;;;;;5043353;28;19933;-75
2022/09/12 01:45:55;;;;;;;;;;;16.10;84.50;;;;;;5042711;28;20470;-75
2022/09/12 01:48:26;;;;;;;;;;;16.10;84.50;;;;;;5041937;28;19987;-75
2022/09/12 01:50:56;;;;;;;;;;;16.10;84.60;;;;;;5042016;28;20393;-75
2022/09/12 01:53:26;;;;;;;;;;;16.10;84.60;;;;;;5041576;28;19929;-76
2022/09/12 01:55:55;;;;;;;;;;;16.10;84.70;;;;;;5037514;28;19987;-75
2022/09/12 01:58:23;;;;;;;;;;;16.00;84.70;;;;;;5041786;28;19929;-76
2022/09/12 02:00:54;;;;;;;;;;;16.00;84.70;;;;;;5042553;28;20733;-76
2022/09/12 02:03:23;;;;;;;;;;;16.00;84.70;;;;;;5042360;28;19936;-75
2022/09/12 02:05:53;;;;;;;;;;;16.00;84.80;;;;;;5037250;28;19924;-75
2022/09/12 02:08:22;;;;;;;;;;;15.90;84.70;;;;;;5042215;28;19929;-76
2022/09/12 02:10:51;;;;;;;;;;;15.90;84.70;;;;;;5042133;28;19940;-76
2022/09/12 02:13:20;;;;;;;;;;;16.00;84.90;;;;;;5046373;28;19929;-76
2022/09/12 02:15:50;;;;;;;;;;;15.90;84.80;;;;;;5044896;28;20372;-77
2022/09/12 02:18:18;;;;;;;;;;;15.90;84.90;;;;;;5043635;28;19932;-75
2022/09/12 02:20:46;;;;;;;;;;;15.90;84.90;;;;;;5043318;28;19929;-76
2022/09/12 02:23:15;;;;;;;;;;;15.90;84.90;;;;;;5046121;28;20512;-75
2022/09/12 02:25:45;;;;;;;;;;;15.90;85.00;;;;;;5044567;28;19935;-75
2022/09/12 02:28:13;;;;;;;;;;;15.80;84.90;;;;;;5044919;28;19935;-75
2022/09/12 02:30:43;;;;;;;;;;;15.80;85.00;;;;;;5045685;28;19929;-76
2022/09/12 02:33:14;;;;;;;;;;;15.80;85.00;;;;;;5046475;28;19929;-75
2022/09/12 02:35:45;;;;;;;;;;;15.80;85.00;;;;;;5048309;28;19933;-76
2022/09/12 02:38:16;;;;;;;;;;;15.80;85.10;;;;;;5045268;28;19944;-75
2022/09/12 02:40:42;;;;;;;;;;;15.70;85.00;;;;;;5044657;28;19932;-76
2022/09/12 02:43:09;;;;;;;;;;;15.70;85.00;;;;;;5045135;28;19933;-75
2022/09/12 02:45:36;;;;;;;;;;;15.70;85.10;;;;;;5045120;28;19963;-75
2022/09/12 02:48:05;;;;;;;;;;;15.70;85.00;;;;;;5043838;28;19936;-76
2022/09/12 02:50:32;;;;;;;;;;;15.70;85.10;;;;;;5041444;28;19928;-76
2022/09/12 02:53:03;;;;;;;;;;;15.70;85.10;;;;;;5044811;28;19936;-75
2022/09/12 02:55:32;;;;;;;;;;;15.60;85.10;;;;;;5039072;28;20062;-75
2022/09/12 02:57:58;;;;;;;;;;;15.70;85.10;;;;;;5045151;28;20008;-75
2022/09/12 03:00:26;;;;;;;;;;;15.60;85.10;;;;;;5044699;28;19933;-76
2022/09/12 03:02:58;;;;;;;;;;;15.60;85.00;;;;;;5044343;28;19932;-76
2022/09/12 03:05:28;;;;;;;;;;;15.60;85.10;;;;;;5044296;28;19933;-75
2022/09/12 03:08:14;;;;;;;;;;;15.50;85.10;;;;;;5044947;28;19935;-75
2022/09/12 03:10:51;;;;;;;;;;;15.60;85.20;;;;;;5041615;28;19932;-75
2022/09/12 03:13:20;;;;;;;;;;;15.50;85.20;;;;;;5042255;28;20739;-75
2022/09/12 03:15:51;;;;;;;;;;;15.50;85.30;;;;;;5044487;28;19998;-75
2022/09/12 03:18:22;;;;;;;;;;;15.50;85.30;;;;;;5044844;28;19929;-76
2022/09/12 03:20:53;;;;;;;;;;;15.50;85.30;;;;;;5044667;28;19936;-76
2022/09/12 03:23:24;;;;;;;;;;;15.40;85.30;;;;;;5043498;28;19932;-75
2022/09/12 03:25:54;;;;;;;;;;;15.50;85.40;;;;;;5042434;28;19937;-76
2022/09/12 03:28:21;;;;;;;;;;;15.40;85.30;;;;;;5045838;28;19940;-75
2022/09/12 03:30:50;;;;;;;;;;;15.40;85.20;;;;;;5045765;28;19928;-76
2022/09/12 03:33:17;;;;;;;;;;;15.40;85.30;;;;;;5043344;28;20274;-75
2022/09/12 03:35:44;;;;;;;;;;;15.40;85.30;;;;;;5045470;28;19939;-75
2022/09/12 03:38:10;;;;;;;;;;;15.40;86.10;;;;;;5045681;28;19958;-75
2022/09/12 03:40:37;;;;;;;;;;;15.30;85.30;;;;;;5041361;28;19936;-75
2022/09/12 03:43:06;;;;;;;;;;;15.30;85.30;;;;;;5043447;28;19939;-75
2022/09/12 03:45:33;;;;;;;;;;;15.30;85.40;;;;;;5037720;28;19955;-75
2022/09/12 03:47:59;;;;;;;;;;;15.30;85.50;;;;;;5044654;28;20419;-75
2022/09/12 03:50:26;;;;;;;;;;;15.30;85.40;;;;;;5042818;28;19933;-75
2022/09/12 03:52:53;;;;;;;;;;;15.20;85.40;;;;;;5044980;28;19936;-75
2022/09/12 03:55:20;;;;;;;;;;;15.20;85.50;;;;;;5038382;28;19983;-75
2022/09/12 03:57:46;;;;;;;;;;;15.30;85.60;;;;;;5044139;28;19944;-75
2022/09/12 04:00:15;;;;;;;;;;;15.20;85.50;;;;;;5043030;28;19936;-75
2022/09/12 04:02:41;;;;;;;;;;;15.20;85.80;;;;;;5044646;28;19929;-75
2022/09/12 04:05:08;;;;;;;;;;;15.10;85.50;;;;;;5044474;28;19935;-75
2022/09/12 04:07:35;;;;;;;;;;;15.20;85.60;;;;;;5042270;28;19939;-76
2022/09/12 04:10:01;;;;;;;;;;;15.10;85.60;;;;;;5043498;28;20002;-74
2022/09/12 04:12:28;;;;;;;;;;;15.20;85.60;;;;;;5046105;28;19996;-76
2022/09/12 04:14:55;;;;;;;;;;;15.10;85.60;;;;;;5043224;28;19997;-75
2022/09/12 04:17:23;;;;;;;;;;;15.10;85.60;;;;;;5042599;28;19993;-75
2022/09/12 04:19:49;;;;;;;;;;;15.10;85.70;;;;;;5037334;28;19970;-75
2022/09/12 04:22:16;;;;;;;;;;;15.10;85.70;;;;;;5044036;28;19984;-74
2022/09/12 04:24:42;;;;;;;;;;;15.10;85.70;;;;;;5039790;28;19962;-75
2022/09/12 04:27:09;;;;;;;;;;;15.10;85.80;;;;;;5044568;28;19933;-74
2022/09/12 04:29:35;;;;;;;;;;;15.00;85.70;;;;;;5044887;28;20392;-75
2022/09/12 04:32:02;;;;;;;;;;;15.00;85.70;;;;;;5044201;28;19974;-75
2022/09/12 04:34:31;;;;;;;;;;;15.00;85.80;;;;;;5041797;28;19936;-75
2022/09/12 04:36:58;;;;;;;;;;;15.00;85.80;;;;;;5043856;28;19997;-75
2022/09/12 04:39:24;;;;;;;;;;;15.00;85.80;;;;;;5041379;28;19931;-74
2022/09/12 04:41:51;;;;;;;;;;;14.90;85.80;;;;;;5043385;28;19935;-75
2022/09/12 04:44:18;;;;;;;;;;;14.90;85.80;;;;;;5040643;28;19933;-75
2022/09/12 04:46:45;;;;;;;;;;;14.90;85.80;;;;;;5043552;28;20696;-75
2022/09/12 04:49:12;;;;;;;;;;;14.90;85.80;;;;;;5040777;28;19929;-75
2022/09/12 04:51:41;;;;;;;;;;;14.90;85.80;;;;;;5041670;28;19929;-75
2022/09/12 04:54:10;;;;;;;;;;;14.90;85.80;;;;;;5038912;28;19933;-73
2022/09/12 04:56:37;;;;;;;;;;;14.90;85.90;;;;;;5037792;28;20461;-75
2022/09/12 04:59:04;;;;;;;;;;;14.90;85.90;;;;;;5040893;28;19980;-74
2022/09/12 05:01:31;;;;;;;;;;;14.70;85.10;;;;;;5033607;28;20015;-74
2022/09/12 05:03:58;;;;;;;;;;;14.60;86.40;;;;;;5040617;28;20431;-75
2022/09/12 05:06:27;;;;;;;;;;;14.60;87.00;;;;;;5036877;28;19928;-76
2022/09/12 05:08:56;;;;;;;;;;;14.50;87.20;;;;;;5042871;28;20317;-76
2022/09/12 05:11:23;;;;;;;;;;;14.50;87.30;;;;;;5046460;28;19929;-76
2022/09/12 05:13:50;;;;;;;;;;;14.50;87.20;;;;;;5041959;28;20316;-75
2022/09/12 05:16:18;;;;;;;;;;;14.50;87.10;;;;;;5042776;28;20384;-76
2022/09/12 05:18:45;;;;;;;;;;;14.60;87.00;;;;;;5041172;28;19928;-75
2022/09/12 05:21:12;;;;;;;;;;;14.50;86.80;;;;;;5045368;28;19952;-76
2022/09/12 05:23:39;;;;;;;;;;;14.50;86.80;;;;;;5043332;28;19932;-76
2022/09/12 05:26:07;;;;;;;;;;;14.50;86.70;;;;;;5043370;28;19929;-75
2022/09/12 05:28:35;;;;;;;;;;;14.50;86.70;;;;;;5049446;28;20043;-76
2022/09/12 05:31:02;;;;;;;;;;;14.50;86.60;;;;;;5045426;28;19979;-75
2022/09/12 05:33:29;;;;;;;;;;;14.50;86.60;;;;;;5041368;28;19936;-75
2022/09/12 05:35:55;;;;;;;;;;;14.50;86.60;;;;;;5041643;28;19929;-75
2022/09/12 05:38:23;;;;;;;;;;;14.50;86.50;;;;;;5044304;28;19951;-76
2022/09/12 05:40:49;;;;;;;;;;;14.50;86.60;;;;;;5042018;28;19967;-77
2022/09/12 05:43:19;;;;;;;;;;;14.50;86.50;;;;;;5041889;28;19929;-76
2022/09/12 05:45:45;;;;;;;;;;;14.50;86.50;;;;;;5042194;28;19936;-77
2022/09/12 05:48:12;;;;;;;;;;;14.50;86.50;;;;;;5042351;28;19936;-77
2022/09/12 05:50:38;;;;;;;;;;;14.50;86.50;;;;;;5044406;28;19981;-76
2022/09/12 05:53:05;;;;;;;;;;;14.50;86.50;;;;;;5040930;28;19933;-76
2022/09/12 05:55:32;;;;;;;;;;;14.40;86.40;;;;;;5039178;28;19932;-77
2022/09/12 05:57:58;;;;;;;;;;;14.50;86.50;;;;;;5043675;28;20327;-76
2022/09/12 06:00:26;;;;;;;;;;;14.50;86.60;;;;;;5041553;28;22099;-75
2022/09/12 06:02:53;;;;;;;;;;;14.50;86.60;;;;;;5046267;28;19936;-76
2022/09/12 06:05:19;;;;;;;;;;;14.40;86.50;;;;;;5041605;28;19948;-76
2022/09/12 06:07:46;;;;;;;;;;;14.50;86.60;;;;;;5043132;28;19928;-77
2022/09/12 06:10:13;;;;;;;;;;;14.50;86.70;;;;;;5041627;28;20005;-77
2022/09/12 06:12:39;;;;;;;;;;;14.40;86.60;;;;;;5043005;28;20561;-76
2022/09/12 06:15:06;;;;;;;;;;;14.40;86.60;;;;;;5042841;28;19964;-76
2022/09/12 06:17:34;;;;;;;;;;;14.40;86.60;;;;;;5042657;28;20019;-76
2022/09/12 06:20:02;;;;;;;;;;;14.40;86.70;;;;;;5040247;28;19929;-77
2022/09/12 06:22:29;;;;;;;;;;;14.40;86.60;;;;;;5042751;28;20417;-75
2022/09/12 06:24:56;;;;;;;;;;;14.40;86.70;;;;;;5038193;28;19933;-76
2022/09/12 06:27:22;;;;;;;;;;;14.40;86.70;;;;;;5044324;28;19981;-76
2022/09/12 06:29:49;;;;;;;;;;;14.40;86.80;;;;;;5041702;28;20372;-76
2022/09/12 06:32:16;;;;;;;;;;;14.40;86.80;;;;;;5042375;28;19936;-75
2022/09/12 06:34:47;;;;;;;;;;;14.40;86.80;;;;;;5039030;28;19933;-75
2022/09/12 06:37:14;;;;;;;;;;;14.40;86.80;;;;;;5043080;28;20300;-75
2022/09/12 06:39:40;;;;;;;;;;;14.40;86.80;;;;;;5041828;28;20479;-75
2022/09/12 06:42:07;;;;;;;;;;;14.40;86.80;;;;;;5042134;28;20327;-74
2022/09/12 06:44:33;;;;;;;;;;;14.40;87.00;;;;;;5040321;28;19948;-76
2022/09/12 06:47:00;;;;;;;;;;;14.40;87.00;;;;;;5041212;28;20734;-75
2022/09/12 06:49:26;;;;;;;;;;;14.40;87.00;;;;;;5041191;28;20456;-75
2022/09/12 06:51:54;;;;;;;;;;;14.40;87.10;;;;;;5039338;28;19929;-75
2022/09/12 06:54:22;;;;;;;;;;;14.30;87.10;;;;;;5037433;28;19936;-76
2022/09/12 06:56:48;;;;;;;;;;;14.40;87.90;;;;;;5043569;28;19940;-74
2022/09/12 06:59:15;;;;;;;;;;;14.30;87.20;;;;;;5045376;28;19929;-75
2022/09/12 07:01:42;;;;;;;;;;;14.30;87.30;;;;;;5047550;28;20027;-75
2022/09/12 07:04:08;;;;;;;;;;;14.30;87.30;;;;;;5040844;28;19932;-75
2022/09/12 07:06:36;;;;;;;;;;;14.30;87.40;;;;;;5045831;28;19979;-75
2022/09/12 07:09:06;;;;;;;;;;;14.30;87.50;;;;;;5040231;28;19928;-74
2022/09/12 07:11:33;;;;;;;;;;;14.30;87.60;;;;;;5047874;28;20110;-75
2022/09/12 07:14:01;;;;;;;;;;;14.30;87.60;;;;;;5045951;28;20380;-73
2022/09/12 07:16:27;;;;;;;;;;;14.30;87.70;;;;;;5046213;28;19949;-75
2022/09/12 07:18:55;;;;;;;;;;;14.30;87.70;;;;;;5046235;28;19936;-76
2022/09/12 07:21:21;;;;;;;;;;;14.30;87.70;;;;;;5040746;28;19935;-75
2022/09/12 07:23:48;;;;;;;;;;;14.30;87.80;;;;;;5045208;28;19929;-73
2022/09/12 07:26:16;;;;;;;;;;;14.40;87.80;;;;;;5045577;28;19932;-75
2022/09/12 07:28:43;;;;;;;;;;;14.40;87.90;;;;;;5044512;28;19925;-74
2022/09/12 07:31:10;;;;;;;;;;;14.40;89.10;;;;;;5044634;28;19929;-74
2022/09/12 07:33:37;;;;;;;;;;;14.50;90.30;;;;;;5043781;28;19940;-75
2022/09/12 07:36:05;;;;;;;;;;;14.40;90.20;;;;;;5047910;28;20347;-74
2022/09/12 07:38:32;;;;;;;;;;;14.40;90.10;;;;;;5045609;28;20403;-74
2022/09/12 07:41:00;;;;;;;;;;;14.40;90.00;;;;;;5044376;28;19990;-74
2022/09/12 07:43:28;;;;;;;;;;;14.40;89.80;;;;;;5044453;28;19929;-74
2022/09/12 07:45:55;;;;;;;;;;;14.50;89.70;;;;;;5045491;28;19935;-74
2022/09/12 07:48:21;;;;;;;;;;;14.50;89.60;;;;;;5044937;28;20254;-74
2022/09/12 07:50:49;;;;;;;;;;;14.50;89.40;;;;;;5040325;28;19972;-75
2022/09/12 07:53:16;;;;;;;;;;;14.50;89.50;;;;;;5045571;28;19929;-74
2022/09/12 07:55:42;;;;;;;;;;;14.50;89.50;;;;;;5038615;28;20282;-74
2022/09/12 07:58:09;;;;;;;;;;;14.50;89.20;;;;;;5043117;28;20007;-74
2022/09/12 08:00:37;;;;;;;;;;;14.60;89.20;;;;;;5044914;28;19936;-76
2022/09/12 08:03:04;;;;;;;;;;;14.60;89.20;;;;;;5047610;28;19932;-75
2022/09/12 08:05:31;;;;;;;;;;;14.60;89.30;;;;;;5037796;28;19929;-75
2022/09/12 08:07:57;;;;;;;;;;;14.60;89.30;;;;;;5044413;28;19933;-74
2022/09/12 08:10:24;;;;;;;;;;;14.60;89.30;;;;;;5042908;28;20011;-75
2022/09/12 08:12:50;;;;;;;;;;;14.70;89.20;;;;;;5045592;28;19929;-74
2022/09/12 08:15:18;;;;;;;;;;;14.70;89.10;;;;;;5046948;28;19928;-74
2022/09/12 08:17:46;;;;;;;;;;;14.80;89.30;;;;;;5045704;28;19928;-74
2022/09/12 08:20:13;;;;;;;;;;;14.80;89.60;;;;;;5038429;28;19929;-75
2022/09/12 08:22:39;;;;;;;;;;;14.80;89.70;;;;;;5044484;28;19932;-75
2022/09/12 08:25:07;;;;;;;;;;;14.90;89.50;;;;;;5041325;28;20312;-72
2022/09/12 08:27:34;;;;;;;;;;;14.90;89.60;;;;;;5037435;28;20018;-75
2022/09/12 08:30:00;;;;;;;;;;;15.00;89.40;;;;;;5044157;28;20384;-74
2022/09/12 08:32:27;;;;;;;;;;;15.10;89.10;;;;;;5042814;28;19936;-74
2022/09/12 08:34:55;;;;;;;;;;;15.10;89.10;;;;;;5043683;28;19933;-75
2022/09/12 08:37:21;;;;;;;;;;;15.20;88.80;;;;;;5044517;28;19936;-75
2022/09/12 08:39:48;;;;;;;;;;;15.20;88.50;;;;;;5041171;28;19929;-75
2022/09/12 08:42:21;;;;;;;;;;;15.30;88.30;;;;;;5042241;28;19932;-75
2022/09/12 08:44:56;;;;;;;;;;;15.40;88.00;;;;;;5041544;28;19924;-74
2022/09/12 08:47:26;;;;;;;;;;;15.40;87.80;;;;;;5044826;28;19928;-76
2022/09/12 08:49:57;;;;;;;;;;;15.50;87.60;;;;;;5043893;28;19928;-75
2022/09/12 08:52:25;;;;;;;;;;;15.60;87.50;;;;;;5045078;28;19955;-75
2022/09/12 08:54:54;;;;;;;;;;;15.60;87.20;;;;;;5040797;28;19929;-74
2022/09/12 08:57:21;;;;;;;;;;;15.70;86.60;;;;;;5044319;28;20387;-76
2022/09/12 08:59:48;;;;;;;;;;;15.80;86.50;;;;;;5043357;28;19929;-75
2022/09/12 09:02:24;;;;;;;;;;;15.80;86.10;;;;;;5046646;28;19928;-76
2022/09/12 09:04:52;;;;;;;;;;;15.90;85.90;;;;;;5044524;28;20064;-76
2022/09/12 09:07:27;;;;;;;;;;;15.90;85.50;;;;;;5043938;28;19933;-77
2022/09/12 09:10:00;;;;;;;;;;;16.00;85.30;;;;;;5048109;28;19933;-75
2022/09/12 09:12:32;;;;;;;;;;;16.10;85.10;;;;;;5041490;28;19932;-74
2022/09/12 09:15:10;;;;;;;;;;;16.10;84.80;;;;;;5047316;28;19963;-74
2022/09/12 09:17:39;;;;;;;;;;;16.30;85.70;;;;;;5044964;28;19935;-74
2022/09/12 09:20:12;;;;;;;;;;;16.50;84.50;;;;;;5042732;28;19936;-74
2022/09/12 09:22:43;;;;;;;;;;;16.60;84.20;;;;;;5042342;28;19928;-73
2022/09/12 09:25:13;;;;;;;;;;;16.70;84.00;;;;;;5040336;28;19933;-74
2022/09/12 09:27:43;;;;;;;;;;;16.70;83.90;;;;;;5041236;28;19929;-74
2022/09/12 09:30:14;;;;;;;;;;;16.70;83.70;;;;;;5040243;28;20359;-74
2022/09/12 09:32:41;;;;;;;;;;;16.70;83.70;;;;;;5043805;28;19929;-72
2022/09/12 09:35:13;;;;;;;;;;;16.70;83.60;;;;;;5042770;28;20321;-72
2022/09/12 09:37:56;;;;;;;;;;;16.80;83.30;;;;;;5040282;28;19990;-73
2022/09/12 09:40:27;;;;;;;;;;;16.80;83.20;;;;;;5041853;28;20020;-74
2022/09/12 09:42:57;;;;;;;;;;;16.90;83.30;;;;;;5046179;28;20738;-74
2022/09/12 09:45:24;;;;;;;;;;;17.00;83.40;;;;;;5043365;28;19925;-74
2022/09/12 09:47:53;;;;;;;;;;;17.00;83.10;;;;;;5041946;28;19987;-74
2022/09/12 09:50:19;;;;;;;;;;;17.10;83.00;;;;;;5042695;28;20655;-74
2022/09/12 09:52:47;;;;;;;;;;;17.10;82.90;;;;;;5042787;28;19935;-74
2022/09/12 09:55:16;;;;;;;;;;;17.20;82.70;;;;;;5039615;28;19928;-74
2022/09/12 09:57:45;;;;;;;;;;;17.20;82.20;;;;;;5044774;28;20615;-73
2022/09/12 10:00:26;;;;;;;;;;;17.30;82.20;;;;;;5041416;28;19931;-75
2022/09/12 10:03:03;;;;;;;;;;;17.40;81.90;;;;;;5042695;28;20662;-74
2022/09/12 10:05:30;;;;;;;;;;;17.40;81.70;;;;;;5040532;28;19929;-73
2022/09/12 10:07:57;;;;;;;;;;;17.50;81.50;;;;;;5043327;28;19960;-73
2022/09/12 10:10:24;;;;;;;;;;;17.60;81.40;;;;;;5043436;28;19935;-74
2022/09/12 10:13:05;;;;;;;;;;;17.60;81.20;;;;;;5040353;28;19933;-74
2022/09/12 10:15:33;;;;;;;;;;;17.70;80.90;;;;;;5039474;28;19936;-74
2022/09/12 10:18:01;;;;;;;;;;;17.80;80.50;;;;;;5043511;28;19928;-73
2022/09/12 10:20:32;;;;;;;;;;;17.90;80.40;;;;;;5042224;28;19936;-73
2022/09/12 10:22:59;;;;;;;;;;;17.90;80.20;;;;;;5046233;28;19936;-68
2022/09/12 10:25:27;;;;;;;;;;;18.00;80.60;;;;;;5042855;28;20523;-67
2022/09/12 10:27:56;;;;;;;;;;;18.10;79.60;;;;;;5043133;28;20087;-68
2022/09/12 10:30:26;;;;;;;;;;;18.10;79.30;;;;;;5043700;28;19987;-68
2022/09/12 10:32:54;;;;;;;;;;;18.20;79.00;;;;;;5045757;28;19935;-68
2022/09/12 10:35:22;;;;;;;;;;;18.30;78.90;;;;;;5044170;28;20666;-68
2022/09/12 10:37:52;;;;;;;;;;;18.30;78.60;;;;;;5046864;28;20638;-68
2022/09/12 10:40:23;;;;;;;;;;;18.40;78.30;;;;;;5041166;28;19940;-68
2022/09/12 10:42:50;;;;;;;;;;;18.50;77.90;;;;;;5046642;28;20377;-68
2022/09/12 10:45:23;;;;;;;;;;;18.60;77.50;;;;;;5046081;28;19939;-68
2022/09/12 10:47:50;;;;;;;;;;;18.60;77.30;;;;;;5047637;28;19936;-69
2022/09/12 10:50:27;;;;;;;;;;;18.70;77.10;;;;;;5039195;28;19933;-69
2022/09/12 10:52:54;;;;;;;;;;;18.80;76.80;;;;;;5047848;28;19924;-68
2022/09/12 10:55:24;;;;;;;;;;;18.90;76.50;;;;;;5042527;28;20482;-68
2022/09/12 10:57:55;;;;;;;;;;;18.90;76.50;;;;;;5050424;28;19937;-68
2022/09/12 11:00:29;;;;;;;;;;;19.00;76.10;;;;;;5044835;28;19971;-68
2022/09/12 11:03:02;;;;;;;;;;;19.10;75.60;;;;;;5044601;28;20011;-69
2022/09/12 11:05:50;;;;;;;;;;;19.20;75.10;;;;;;5046694;28;20309;-68
2022/09/12 11:08:22;;;;;;;;;;;19.20;74.80;;;;;;5041241;28;19986;-69
2022/09/12 11:10:53;;;;;;;;;;;19.30;74.40;;;;;;5048430;28;19928;-68
2022/09/12 11:13:27;;;;;;;;;;;19.40;74.40;;;;;;5038964;28;20037;-68
2022/09/12 11:16:05;;;;;;;;;;;19.40;74.00;;;;;;5049216;28;19987;-68
2022/09/12 11:18:43;;;;;;;;;;;19.50;73.70;;;;;;5047220;28;19979;-68
2022/09/12 11:21:14;;;;;;;;;;;19.60;73.50;;;;;;5046000;28;19929;-68
2022/09/12 11:24:02;;;;;;;;;;;19.70;73.60;;;;;;5049657;28;20396;-68
2022/09/12 11:26:34;;;;;;;;;;;19.70;73.20;;;;;;5038075;28;19978;-68
2022/09/12 11:29:09;;;;;;;;;;;19.80;72.70;;;;;;5047029;28;19933;-68
2022/09/12 11:31:55;;;;;;;;;;;19.90;72.40;;;;;;5046303;28;20455;-68
2022/09/12 11:34:25;;;;;;;;;;;19.90;72.10;;;;;;5043291;28;19928;-68
2022/09/12 11:37:02;;;;;;;;;;;20.00;71.90;;;;;;5046732;28;19928;-68
2022/09/12 11:39:31;;;;;;;;;;;20.10;71.70;;;;;;5038902;28;19936;-69
2022/09/12 11:41:59;;;;;;;;;;;20.20;71.40;;;;;;5044721;28;20601;-68
2022/09/12 11:44:27;;;;;;;;;;;20.20;71.10;;;;;;5043875;28;20006;-68
2022/09/12 11:46:55;;;;;;;;;;;20.30;72.00;;;;;;5045347;28;20047;-68
2022/09/12 11:49:25;;;;;;;;;;;20.40;71.50;;;;;;5044777;28;19998;-68
2022/09/12 11:51:55;;;;;;;;;;;20.50;70.90;;;;;;5047200;28;19990;-68
2022/09/12 11:54:24;;;;;;;;;;;20.50;70.30;;;;;;5043446;28;19996;-69
2022/09/12 11:56:53;;;;;;;;;;;20.60;70.00;;;;;;5048358;28;19936;-68
2022/09/12 11:59:28;;;;;;;;;;;20.60;69.60;;;;;;5045679;28;19929;-68
2022/09/12 12:01:58;;;;;;;;;;;20.70;69.50;;;;;;5047739;28;19929;-69
2022/09/12 12:04:29;;;;;;;;;;;20.80;69.20;;;;;;5033336;28;19929;-69
2022/09/12 12:06:59;;;;;;;;;;;20.90;69.30;;;;;;5046341;28;19936;-69
2022/09/12 12:09:25;;;;;;;;;;;20.90;69.20;;;;;;5040217;28;19928;-69
2022/09/12 12:11:54;;;;;;;;;;;21.00;68.60;;;;;;5049801;28;19982;-69
2022/09/12 12:14:23;;;;;;;;;;;21.10;68.70;;;;;;5041240;28;19940;-68
2022/09/12 12:16:50;;;;;;;;;;;21.20;68.00;;;;;;5047491;28;19929;-69
2022/09/12 12:19:31;;;;;;;;;;;21.20;67.60;;;;;;5044846;28;20459;-67
2022/09/12 12:22:05;;;;;;;;;;;21.30;67.60;;;;;;5039475;28;19964;-69
2022/09/12 12:24:32;;;;;;;;;;;21.30;67.20;;;;;;5050009;28;19939;-69
2022/09/12 12:27:00;;;;;;;;;;;21.40;67.10;;;;;;5042307;28;19928;-69
2022/09/12 12:29:37;;;;;;;;;;;21.40;66.90;;;;;;5045775;28;19929;-68
2022/09/12 12:32:23;;;;;;;;;;;21.50;66.60;;;;;;5045172;28;20393;-69
2022/09/12 12:35:00;;;;;;;;;;;21.50;66.30;;;;;;5043556;28;19929;-69
2022/09/12 12:37:46;;;;;;;;;;;21.60;66.30;;;;;;5045345;28;19928;-69
2022/09/12 12:40:20;;;;;;;;;;;21.60;66.20;;;;;;5041928;28;19983;-69
2022/09/12 12:43:06;;;;;;;;;;;21.70;65.80;;;;;;5044737;28;19933;-70
2022/09/12 12:45:51;;;;;;;;;;;21.80;65.60;;;;;;5044567;28;20425;-69
2022/09/12 12:48:19;;;;;;;;;;;21.80;65.40;;;;;;5044972;28;20009;-68
2022/09/12 12:50:47;;;;;;;;;;;21.90;65.10;;;;;;5046659;28;19971;-69
2022/09/12 12:53:19;;;;;;;;;;;22.00;64.90;;;;;;5042626;28;20020;-69
2022/09/12 12:55:47;;;;;;;;;;;22.00;65.40;;;;;;5040953;28;20304;-69
2022/09/12 12:58:23;;;;;;;;;;;22.10;63.80;;;;;;5042243;28;19940;-69
2022/09/12 13:01:01;;;;;;;;;;;22.10;63.80;;;;;;5043956;28;19929;-68
2022/09/12 13:03:29;;;;;;;;;;;22.20;64.00;;;;;;5043226;28;19959;-69
2022/09/12 13:06:00;;;;;;;;;;;22.20;63.60;;;;;;5040259;28;19933;-69
2022/09/12 13:08:29;;;;;;;;;;;22.30;63.40;;;;;;5044003;28;19929;-69
2022/09/12 13:10:57;;;;;;;;;;;22.30;63.40;;;;;;5046376;28;19944;-69
2022/09/12 13:13:26;;;;;;;;;;;22.40;62.90;;;;;;5044440;28;19936;-69
2022/09/12 13:15:53;;;;;;;;;;;22.40;62.90;;;;;;5047150;28;19932;-68
2022/09/12 13:18:24;;;;;;;;;;;22.50;62.90;;;;;;5035174;28;19929;-68
2022/09/12 13:20:53;;;;;;;;;;;22.50;62.80;;;;;;5044592;28;19932;-68
2022/09/12 13:23:25;;;;;;;;;;;22.60;62.60;;;;;;5044038;28;19929;-69
2022/09/12 13:25:53;;;;;;;;;;;22.70;62.50;;;;;;5046791;28;19929;-69
2022/09/12 13:28:19;;;;;;;;;;;22.70;63.00;;;;;;5038784;28;20736;-71
2022/09/12 13:30:47;;;;;;;;;;;22.80;62.20;;;;;;5044314;28;19932;-68
2022/09/12 13:33:20;;;;;;;;;;;22.80;61.50;;;;;;5044151;28;19936;-69
2022/09/12 13:36:01;;;;;;;;;;;22.90;61.70;;;;;;5044141;28;19928;-70
2022/09/12 13:38:34;;;;;;;;;;;22.90;60.80;;;;;;5010106;28;19933;-69
2022/09/12 13:41:09;;;;;;;;;;;23.00;59.80;;;;;;5041641;28;19935;-69
2022/09/12 13:43:37;;;;;;;;;;;23.00;60.40;;;;;;5041844;28;20389;-68
2022/09/12 13:46:05;;;;;;;;;;;23.10;60.80;;;;;;5043704;28;20041;-70
2022/09/12 13:48:32;;;;;;;;;;;23.10;60.30;;;;;;5040339;28;19933;-69
2022/09/12 13:51:00;;;;;;;;;;;23.20;60.60;;;;;;5042284;28;19933;-69
2022/09/12 13:53:28;;;;;;;;;;;23.30;60.70;;;;;;5042938;28;19936;-70
2022/09/12 13:55:57;;;;;;;;;;;23.40;60.70;;;;;;5042434;28;19929;-70
2022/09/12 13:58:25;;;;;;;;;;;23.30;59.50;;;;;;5044702;28;19959;-70
2022/09/12 14:01:02;;;;;;;;;;;23.50;60.00;;;;;;5044778;28;20354;-69
2022/09/12 14:06:15;;;;;;;;;;;23.50;60.00;;;;;;5040398;28;19936;-69
2022/09/12 14:08:42;;;;;;;;;;;23.60;59.00;;;;;;5043771;28;19929;-70
2022/09/12 14:11:11;;;;;;;;;;;23.70;59.50;;;;;;5045226;28;19936;-69
2022/09/12 14:13:38;;;;;;;;;;;23.70;59.70;;;;;;5044347;28;19959;-69
2022/09/12 14:16:07;;;;;;;;;;;23.80;59.50;;;;;;5045919;28;19986;-69
2022/09/12 14:18:36;;;;;;;;;;;23.90;59.10;;;;;;5040288;28;19929;-70
2022/09/12 14:21:09;;;;;;;;;;;23.90;58.80;;;;;;5044248;28;19933;-69
2022/09/12 14:23:38;;;;;;;;;;;24.00;58.50;;;;;;5041262;28;20347;-69
2022/09/12 14:26:07;;;;;;;;;;;24.00;59.00;;;;;;5040787;28;19935;-69
2022/09/12 14:28:36;;;;;;;;;;;24.10;58.50;;;;;;5037699;28;19986;-69
2022/09/12 14:31:05;;;;;;;;;;;24.20;58.20;;;;;;5039366;28;19929;-69